sensor_id;sensor_type;location;lat;lon;timestamp;P1;durP1;ratioP1;P2;durP2;ratioP2
19609;SDS011;9952;47.122;-1.638;2024-02-28T00:04:19;47.53;;;25.17;;
19609;SDS011;9952;47.122;-1.638;2024-02-28T00:09:00;39.97;;;23.30;;
19609;SDS011;9952;47.122;-1.638;2024-02-28T00:13:40;40.23;;;23.80;;
19609;SDS011;9952;47.122;-1.638;2024-02-28T00:18:21;37.57;;;21.87;;
19609;SDS011;9952;47.122;-1.638;2024-02-28T00:23:01;30.77;;;18.67;;
19609;SDS011;9952;47.122;-1.638;2024-02-28T00:27:42;39.13;;;21.87;;
19609;SDS011;9952;47.122;-1.638;2024-02-28T00:32:23;32.90;;;19.17;;
19609;SDS011;9952;47.122;-1.638;2024-02-28T00:37:03;26.70;;;16.13;;
19609;SDS011;9952;47.122;-1.638;2024-02-28T00:41:44;23.60;;;13.33;;
19609;SDS011;9952;47.122;-1.638;2024-02-28T00:46:25;17.90;;;10.17;;
19609;SDS011;9952;47.122;-1.638;2024-02-28T00:51:05;16.60;;;9.00;;
19609;SDS011;9952;47.122;-1.638;2024-02-28T00:55:48;16.13;;;8.70;;
19609;SDS011;9952;47.122;-1.638;2024-02-28T01:00:28;14.10;;;7.73;;
19609;SDS011;9952;47.122;-1.638;2024-02-28T01:05:09;10.13;;;6.23;;
19609;SDS011;9952;47.122;-1.638;2024-02-28T01:09:50;12.80;;;6.80;;
19609;SDS011;9952;47.122;-1.638;2024-02-28T01:14:30;7.33;;;5.13;;
19609;SDS011;9952;47.122;-1.638;2024-02-28T01:19:11;8.27;;;5.20;;
19609;SDS011;9952;47.122;-1.638;2024-02-28T01:23:52;10.07;;;5.33;;
19609;SDS011;9952;47.122;-1.638;2024-02-28T01:28:32;12.67;;;6.90;;
19609;SDS011;9952;47.122;-1.638;2024-02-28T01:33:13;10.47;;;5.80;;
19609;SDS011;9952;47.122;-1.638;2024-02-28T01:37:54;15.87;;;6.13;;
19609;SDS011;9952;47.122;-1.638;2024-02-28T01:42:35;13.97;;;6.97;;
19609;SDS011;9952;47.122;-1.638;2024-02-28T01:47:16;11.80;;;6.13;;
19609;SDS011;9952;47.122;-1.638;2024-02-28T01:51:57;13.17;;;5.80;;
19609;SDS011;9952;47.122;-1.638;2024-02-28T01:56:38;8.83;;;5.83;;
19609;SDS011;9952;47.122;-1.638;2024-02-28T02:01:19;11.73;;;5.87;;
19609;SDS011;9952;47.122;-1.638;2024-02-28T02:06:01;8.93;;;5.47;;
19609;SDS011;9952;47.122;-1.638;2024-02-28T02:10:43;11.33;;;5.83;;
19609;SDS011;9952;47.122;-1.638;2024-02-28T02:15:24;11.07;;;6.33;;
19609;SDS011;9952;47.122;-1.638;2024-02-28T02:20:04;10.80;;;7.20;;
19609;SDS011;9952;47.122;-1.638;2024-02-28T02:24:46;15.87;;;9.63;;
19609;SDS011;9952;47.122;-1.638;2024-02-28T02:29:26;17.50;;;8.43;;
19609;SDS011;9952;47.122;-1.638;2024-02-28T02:34:08;20.37;;;10.87;;
19609;SDS011;9952;47.122;-1.638;2024-02-28T02:38:49;16.83;;;9.57;;
19609;SDS011;9952;47.122;-1.638;2024-02-28T02:43:29;17.60;;;9.90;;
19609;SDS011;9952;47.122;-1.638;2024-02-28T02:48:10;20.03;;;10.43;;
19609;SDS011;9952;47.122;-1.638;2024-02-28T02:52:51;14.63;;;9.27;;
19609;SDS011;9952;47.122;-1.638;2024-02-28T02:57:32;17.37;;;9.23;;
19609;SDS011;9952;47.122;-1.638;2024-02-28T03:02:13;19.77;;;8.80;;
19609;SDS011;9952;47.122;-1.638;2024-02-28T03:06:54;18.23;;;9.67;;
19609;SDS011;9952;47.122;-1.638;2024-02-28T03:11:34;20.43;;;10.37;;
19609;SDS011;9952;47.122;-1.638;2024-02-28T03:16:15;19.37;;;11.10;;
19609;SDS011;9952;47.122;-1.638;2024-02-28T03:20:56;20.57;;;11.43;;
19609;SDS011;9952;47.122;-1.638;2024-02-28T03:25:36;16.07;;;9.97;;
19609;SDS011;9952;47.122;-1.638;2024-02-28T03:30:17;23.57;;;12.07;;
19609;SDS011;9952;47.122;-1.638;2024-02-28T03:34:58;21.00;;;11.87;;
19609;SDS011;9952;47.122;-1.638;2024-02-28T03:39:38;22.13;;;11.00;;
19609;SDS011;9952;47.122;-1.638;2024-02-28T03:44:19;27.93;;;11.93;;
19609;SDS011;9952;47.122;-1.638;2024-02-28T03:49:01;17.57;;;9.97;;
19609;SDS011;9952;47.122;-1.638;2024-02-28T03:53:42;20.63;;;10.17;;
19609;SDS011;9952;47.122;-1.638;2024-02-28T03:58:22;16.13;;;10.20;;
19609;SDS011;9952;47.122;-1.638;2024-02-28T04:03:04;19.00;;;9.60;;
19609;SDS011;9952;47.122;-1.638;2024-02-28T04:07:45;21.23;;;11.50;;
19609;SDS011;9952;47.122;-1.638;2024-02-28T04:12:25;18.77;;;11.53;;
19609;SDS011;9952;47.122;-1.638;2024-02-28T04:17:06;20.23;;;11.47;;
19609;SDS011;9952;47.122;-1.638;2024-02-28T04:21:47;20.23;;;11.97;;
19609;SDS011;9952;47.122;-1.638;2024-02-28T04:26:27;19.50;;;11.07;;
19609;SDS011;9952;47.122;-1.638;2024-02-28T04:31:08;20.60;;;11.20;;
19609;SDS011;9952;47.122;-1.638;2024-02-28T04:35:49;18.40;;;10.63;;
19609;SDS011;9952;47.122;-1.638;2024-02-28T04:40:30;17.00;;;10.73;;
19609;SDS011;9952;47.122;-1.638;2024-02-28T04:45:10;19.27;;;10.17;;
19609;SDS011;9952;47.122;-1.638;2024-02-28T04:49:51;22.07;;;12.27;;
19609;SDS011;9952;47.122;-1.638;2024-02-28T04:54:32;24.50;;;11.87;;
19609;SDS011;9952;47.122;-1.638;2024-02-28T04:59:13;12.27;;;7.70;;
19609;SDS011;9952;47.122;-1.638;2024-02-28T05:03:54;17.63;;;8.63;;
19609;SDS011;9952;47.122;-1.638;2024-02-28T05:08:37;13.57;;;8.63;;
19609;SDS011;9952;47.122;-1.638;2024-02-28T05:13:18;11.60;;;7.53;;
19609;SDS011;9952;47.122;-1.638;2024-02-28T05:17:59;10.47;;;6.53;;
19609;SDS011;9952;47.122;-1.638;2024-02-28T05:22:40;11.77;;;6.90;;
19609;SDS011;9952;47.122;-1.638;2024-02-28T05:27:22;10.87;;;7.13;;
19609;SDS011;9952;47.122;-1.638;2024-02-28T05:32:03;8.80;;;6.00;;
19609;SDS011;9952;47.122;-1.638;2024-02-28T05:36:44;10.93;;;6.20;;
19609;SDS011;9952;47.122;-1.638;2024-02-28T05:41:25;12.60;;;6.17;;
19609;SDS011;9952;47.122;-1.638;2024-02-28T05:46:05;10.83;;;6.20;;
19609;SDS011;9952;47.122;-1.638;2024-02-28T05:50:46;14.43;;;6.13;;
19609;SDS011;9952;47.122;-1.638;2024-02-28T05:55:27;14.93;;;6.37;;
19609;SDS011;9952;47.122;-1.638;2024-02-28T06:00:08;8.90;;;6.17;;
19609;SDS011;9952;47.122;-1.638;2024-02-28T06:04:52;13.97;;;10.13;;
19609;SDS011;9952;47.122;-1.638;2024-02-28T06:09:32;13.47;;;9.80;;
19609;SDS011;9952;47.122;-1.638;2024-02-28T06:14:13;12.37;;;7.30;;
19609;SDS011;9952;47.122;-1.638;2024-02-28T06:18:54;8.20;;;5.70;;
19609;SDS011;9952;47.122;-1.638;2024-02-28T06:23:34;10.23;;;5.73;;
19609;SDS011;9952;47.122;-1.638;2024-02-28T06:28:15;12.07;;;4.83;;
19609;SDS011;9952;47.122;-1.638;2024-02-28T06:32:58;8.80;;;4.50;;
19609;SDS011;9952;47.122;-1.638;2024-02-28T06:37:39;7.07;;;4.03;;
19609;SDS011;9952;47.122;-1.638;2024-02-28T06:42:20;7.87;;;3.83;;
19609;SDS011;9952;47.122;-1.638;2024-02-28T06:47:01;7.40;;;3.90;;
19609;SDS011;9952;47.122;-1.638;2024-02-28T06:51:43;6.97;;;3.97;;
19609;SDS011;9952;47.122;-1.638;2024-02-28T06:56:24;5.33;;;3.47;;
19609;SDS011;9952;47.122;-1.638;2024-02-28T07:01:04;5.43;;;3.67;;
19609;SDS011;9952;47.122;-1.638;2024-02-28T07:05:45;6.20;;;3.73;;
19609;SDS011;9952;47.122;-1.638;2024-02-28T07:10:26;5.20;;;3.63;;
19609;SDS011;9952;47.122;-1.638;2024-02-28T07:15:06;7.43;;;3.40;;
19609;SDS011;9952;47.122;-1.638;2024-02-28T07:19:47;9.23;;;3.50;;
19609;SDS011;9952;47.122;-1.638;2024-02-28T07:24:28;5.93;;;3.57;;
19609;SDS011;9952;47.122;-1.638;2024-02-28T07:29:09;7.80;;;3.57;;
19609;SDS011;9952;47.122;-1.638;2024-02-28T07:33:49;4.57;;;3.33;;
19609;SDS011;9952;47.122;-1.638;2024-02-28T07:38:30;8.40;;;3.50;;
19609;SDS011;9952;47.122;-1.638;2024-02-28T07:43:11;6.87;;;2.90;;
19609;SDS011;9952;47.122;-1.638;2024-02-28T07:47:52;5.53;;;3.40;;
19609;SDS011;9952;47.122;-1.638;2024-02-28T07:52:32;6.37;;;3.00;;
19609;SDS011;9952;47.122;-1.638;2024-02-28T07:57:15;7.80;;;3.23;;
19609;SDS011;9952;47.122;-1.638;2024-02-28T08:01:55;5.77;;;3.10;;
19609;SDS011;9952;47.122;-1.638;2024-02-28T08:06:36;5.33;;;2.83;;
19609;SDS011;9952;47.122;-1.638;2024-02-28T08:11:17;4.90;;;2.47;;
19609;SDS011;9952;47.122;-1.638;2024-02-28T08:15:58;4.77;;;2.60;;
19609;SDS011;9952;47.122;-1.638;2024-02-28T08:20:39;6.40;;;2.43;;
19609;SDS011;9952;47.122;-1.638;2024-02-28T08:25:20;7.67;;;2.97;;
19609;SDS011;9952;47.122;-1.638;2024-02-28T08:30:01;4.03;;;2.40;;
19609;SDS011;9952;47.122;-1.638;2024-02-28T08:34:44;7.27;;;2.50;;
19609;SDS011;9952;47.122;-1.638;2024-02-28T08:39:26;4.47;;;2.40;;
19609;SDS011;9952;47.122;-1.638;2024-02-28T08:44:06;2.97;;;1.93;;
19609;SDS011;9952;47.122;-1.638;2024-02-28T08:48:47;4.20;;;2.27;;
19609;SDS011;9952;47.122;-1.638;2024-02-28T08:53:28;3.83;;;1.97;;
19609;SDS011;9952;47.122;-1.638;2024-02-28T08:58:08;3.60;;;1.77;;
19609;SDS011;9952;47.122;-1.638;2024-02-28T09:02:49;6.07;;;1.77;;
19609;SDS011;9952;47.122;-1.638;2024-02-28T09:07:30;6.50;;;1.80;;
19609;SDS011;9952;47.122;-1.638;2024-02-28T09:12:10;4.50;;;2.00;;
19609;SDS011;9952;47.122;-1.638;2024-02-28T09:16:51;3.60;;;1.47;;
19609;SDS011;9952;47.122;-1.638;2024-02-28T09:21:33;3.70;;;2.00;;
19609;SDS011;9952;47.122;-1.638;2024-02-28T09:26:14;5.13;;;1.73;;
19609;SDS011;9952;47.122;-1.638;2024-02-28T09:30:54;6.53;;;1.60;;
19609;SDS011;9952;47.122;-1.638;2024-02-28T09:35:35;8.10;;;1.77;;
19609;SDS011;9952;47.122;-1.638;2024-02-28T09:40:16;4.53;;;1.33;;
19609;SDS011;9952;47.122;-1.638;2024-02-28T09:44:59;8.67;;;1.40;;
19609;SDS011;9952;47.122;-1.638;2024-02-28T09:49:42;4.53;;;1.40;;
19609;SDS011;9952;47.122;-1.638;2024-02-28T09:54:23;4.60;;;1.37;;
19609;SDS011;9952;47.122;-1.638;2024-02-28T09:59:04;2.93;;;1.50;;
19609;SDS011;9952;47.122;-1.638;2024-02-28T10:03:46;5.33;;;1.40;;
19609;SDS011;9952;47.122;-1.638;2024-02-28T10:08:30;8.37;;;1.20;;
19609;SDS011;9952;47.122;-1.638;2024-02-28T10:13:11;4.23;;;1.27;;
19609;SDS011;9952;47.122;-1.638;2024-02-28T10:17:52;5.20;;;1.20;;
19609;SDS011;9952;47.122;-1.638;2024-02-28T10:22:36;5.70;;;1.80;;
19609;SDS011;9952;47.122;-1.638;2024-02-28T10:27:17;5.17;;;1.70;;
19609;SDS011;9952;47.122;-1.638;2024-02-28T10:31:59;3.83;;;2.10;;
19609;SDS011;9952;47.122;-1.638;2024-02-28T10:36:40;5.00;;;1.70;;
19609;SDS011;9952;47.122;-1.638;2024-02-28T10:41:25;8.20;;;1.87;;
19609;SDS011;9952;47.122;-1.638;2024-02-28T10:46:08;5.27;;;2.07;;
19609;SDS011;9952;47.122;-1.638;2024-02-28T10:50:49;6.73;;;2.03;;
19609;SDS011;9952;47.122;-1.638;2024-02-28T10:55:34;4.23;;;2.10;;
19609;SDS011;9952;47.122;-1.638;2024-02-28T11:00:19;6.87;;;2.00;;
19609;SDS011;9952;47.122;-1.638;2024-02-28T11:05:00;9.83;;;2.00;;
19609;SDS011;9952;47.122;-1.638;2024-02-28T11:09:41;7.50;;;1.93;;
19609;SDS011;9952;47.122;-1.638;2024-02-28T11:14:22;4.63;;;2.40;;
19609;SDS011;9952;47.122;-1.638;2024-02-28T11:19:05;4.67;;;2.53;;
19609;SDS011;9952;47.122;-1.638;2024-02-28T11:23:46;7.67;;;2.73;;
19609;SDS011;9952;47.122;-1.638;2024-02-28T11:28:28;5.97;;;2.70;;
19609;SDS011;9952;47.122;-1.638;2024-02-28T11:33:08;6.87;;;3.13;;
19609;SDS011;9952;47.122;-1.638;2024-02-28T11:37:49;6.50;;;2.50;;
19609;SDS011;9952;47.122;-1.638;2024-02-28T11:42:31;6.60;;;2.77;;
19609;SDS011;9952;47.122;-1.638;2024-02-28T11:47:14;7.27;;;3.20;;
19609;SDS011;9952;47.122;-1.638;2024-02-28T11:51:55;8.00;;;2.80;;
19609;SDS011;9952;47.122;-1.638;2024-02-28T11:56:35;9.37;;;3.30;;
19609;SDS011;9952;47.122;-1.638;2024-02-28T12:01:17;5.97;;;3.50;;
19609;SDS011;9952;47.122;-1.638;2024-02-28T12:05:58;9.10;;;3.27;;
19609;SDS011;9952;47.122;-1.638;2024-02-28T12:10:39;7.63;;;3.37;;
19609;SDS011;9952;47.122;-1.638;2024-02-28T12:15:20;6.07;;;3.67;;
19609;SDS011;9952;47.122;-1.638;2024-02-28T12:20:01;7.07;;;3.20;;
19609;SDS011;9952;47.122;-1.638;2024-02-28T12:24:42;7.20;;;3.10;;
19609;SDS011;9952;47.122;-1.638;2024-02-28T12:29:22;13.93;;;5.47;;
19609;SDS011;9952;47.122;-1.638;2024-02-28T12:34:03;11.23;;;5.13;;
19609;SDS011;9952;47.122;-1.638;2024-02-28T12:38:44;10.07;;;4.43;;
19609;SDS011;9952;47.122;-1.638;2024-02-28T12:43:24;11.80;;;3.37;;
19609;SDS011;9952;47.122;-1.638;2024-02-28T12:48:08;8.40;;;3.23;;
19609;SDS011;9952;47.122;-1.638;2024-02-28T12:52:48;11.03;;;2.80;;
19609;SDS011;9952;47.122;-1.638;2024-02-28T12:57:33;7.37;;;1.90;;
19609;SDS011;9952;47.122;-1.638;2024-02-28T13:02:14;5.10;;;1.67;;
19609;SDS011;9952;47.122;-1.638;2024-02-28T13:06:55;4.27;;;1.63;;
19609;SDS011;9952;47.122;-1.638;2024-02-28T13:11:36;7.40;;;1.87;;
19609;SDS011;9952;47.122;-1.638;2024-02-28T13:16:17;3.90;;;1.47;;
19609;SDS011;9952;47.122;-1.638;2024-02-28T13:20:58;3.30;;;1.20;;
19609;SDS011;9952;47.122;-1.638;2024-02-28T13:25:39;1.80;;;0.90;;
19609;SDS011;9952;47.122;-1.638;2024-02-28T13:30:19;4.50;;;1.27;;
19609;SDS011;9952;47.122;-1.638;2024-02-28T13:35:00;4.03;;;1.20;;
19609;SDS011;9952;47.122;-1.638;2024-02-28T13:39:41;4.37;;;1.17;;
19609;SDS011;9952;47.122;-1.638;2024-02-28T13:44:22;2.97;;;1.60;;
19609;SDS011;9952;47.122;-1.638;2024-02-28T13:49:03;2.67;;;1.30;;
19609;SDS011;9952;47.122;-1.638;2024-02-28T13:53:44;5.20;;;1.47;;
19609;SDS011;9952;47.122;-1.638;2024-02-28T13:58:25;2.90;;;1.50;;
19609;SDS011;9952;47.122;-1.638;2024-02-28T14:03:06;5.03;;;1.33;;
19609;SDS011;9952;47.122;-1.638;2024-02-28T14:07:47;1.77;;;1.40;;
19609;SDS011;9952;47.122;-1.638;2024-02-28T14:12:27;3.10;;;1.00;;
19609;SDS011;9952;47.122;-1.638;2024-02-28T14:17:08;1.57;;;0.70;;
19609;SDS011;9952;47.122;-1.638;2024-02-28T14:21:49;3.87;;;1.40;;
19609;SDS011;9952;47.122;-1.638;2024-02-28T14:26:30;2.83;;;0.93;;
19609;SDS011;9952;47.122;-1.638;2024-02-28T14:31:10;2.90;;;1.13;;
19609;SDS011;9952;47.122;-1.638;2024-02-28T14:35:51;3.23;;;1.07;;
19609;SDS011;9952;47.122;-1.638;2024-02-28T14:40:32;3.43;;;1.70;;
19609;SDS011;9952;47.122;-1.638;2024-02-28T14:45:13;2.07;;;0.80;;
19609;SDS011;9952;47.122;-1.638;2024-02-28T14:49:56;0.73;;;0.60;;
19609;SDS011;9952;47.122;-1.638;2024-02-28T14:54:37;1.27;;;0.80;;
19609;SDS011;9952;47.122;-1.638;2024-02-28T14:59:19;2.13;;;0.93;;
19609;SDS011;9952;47.122;-1.638;2024-02-28T15:04:00;2.10;;;0.90;;
19609;SDS011;9952;47.122;-1.638;2024-02-28T15:08:41;2.97;;;1.07;;
19609;SDS011;9952;47.122;-1.638;2024-02-28T15:13:22;2.47;;;2.03;;
19609;SDS011;9952;47.122;-1.638;2024-02-28T15:18:06;0.63;;;0.63;;
19609;SDS011;9952;47.122;-1.638;2024-02-28T15:22:47;1.00;;;0.90;;
19609;SDS011;9952;47.122;-1.638;2024-02-28T15:27:27;2.03;;;0.57;;
19609;SDS011;9952;47.122;-1.638;2024-02-28T15:32:09;1.87;;;0.60;;
19609;SDS011;9952;47.122;-1.638;2024-02-28T15:36:49;1.13;;;0.50;;
19609;SDS011;9952;47.122;-1.638;2024-02-28T15:41:30;1.40;;;0.70;;
19609;SDS011;9952;47.122;-1.638;2024-02-28T15:46:11;1.67;;;0.83;;
19609;SDS011;9952;47.122;-1.638;2024-02-28T15:50:52;0.63;;;0.63;;
19609;SDS011;9952;47.122;-1.638;2024-02-28T15:55:33;1.00;;;0.67;;
19609;SDS011;9952;47.122;-1.638;2024-02-28T16:00:14;0.97;;;0.60;;
19609;SDS011;9952;47.122;-1.638;2024-02-28T16:04:55;1.33;;;0.57;;
19609;SDS011;9952;47.122;-1.638;2024-02-28T16:09:35;3.83;;;0.80;;
19609;SDS011;9952;47.122;-1.638;2024-02-28T16:14:19;2.83;;;1.70;;
19609;SDS011;9952;47.122;-1.638;2024-02-28T16:18:59;5.80;;;3.37;;
19609;SDS011;9952;47.122;-1.638;2024-02-28T16:23:40;2.47;;;1.40;;
19609;SDS011;9952;47.122;-1.638;2024-02-28T16:28:21;1.50;;;0.70;;
19609;SDS011;9952;47.122;-1.638;2024-02-28T16:33:02;0.40;;;0.40;;
19609;SDS011;9952;47.122;-1.638;2024-02-28T16:37:43;1.67;;;0.63;;
19609;SDS011;9952;47.122;-1.638;2024-02-28T16:42:23;2.87;;;2.03;;
19609;SDS011;9952;47.122;-1.638;2024-02-28T16:47:05;0.83;;;0.73;;
19609;SDS011;9952;47.122;-1.638;2024-02-28T16:51:46;0.87;;;0.50;;
19609;SDS011;9952;47.122;-1.638;2024-02-28T16:56:27;1.50;;;0.50;;
19609;SDS011;9952;47.122;-1.638;2024-02-28T17:01:07;2.73;;;0.60;;
19609;SDS011;9952;47.122;-1.638;2024-02-28T17:05:52;0.83;;;0.77;;
19609;SDS011;9952;47.122;-1.638;2024-02-28T17:10:33;1.73;;;0.97;;
19609;SDS011;9952;47.122;-1.638;2024-02-28T17:15:15;1.00;;;0.97;;
19609;SDS011;9952;47.122;-1.638;2024-02-28T17:19:56;7.73;;;3.83;;
19609;SDS011;9952;47.122;-1.638;2024-02-28T17:24:37;2.60;;;1.40;;
19609;SDS011;9952;47.122;-1.638;2024-02-28T17:29:18;1.10;;;1.00;;
19609;SDS011;9952;47.122;-1.638;2024-02-28T17:33:58;2.40;;;1.03;;
19609;SDS011;9952;47.122;-1.638;2024-02-28T17:38:39;1.70;;;1.20;;
19609;SDS011;9952;47.122;-1.638;2024-02-28T17:43:20;4.57;;;3.10;;
19609;SDS011;9952;47.122;-1.638;2024-02-28T17:48:01;4.03;;;1.90;;
19609;SDS011;9952;47.122;-1.638;2024-02-28T17:52:46;4.00;;;2.07;;
19609;SDS011;9952;47.122;-1.638;2024-02-28T17:57:27;2.00;;;1.40;;
19609;SDS011;9952;47.122;-1.638;2024-02-28T18:02:08;8.40;;;3.60;;
19609;SDS011;9952;47.122;-1.638;2024-02-28T18:06:48;5.33;;;2.40;;
19609;SDS011;9952;47.122;-1.638;2024-02-28T18:11:29;6.37;;;2.87;;
19609;SDS011;9952;47.122;-1.638;2024-02-28T18:16:11;18.17;;;10.77;;
19609;SDS011;9952;47.122;-1.638;2024-02-28T18:20:52;4.03;;;2.00;;
19609;SDS011;9952;47.122;-1.638;2024-02-28T18:25:34;2.47;;;1.67;;
19609;SDS011;9952;47.122;-1.638;2024-02-28T18:30:14;2.67;;;1.60;;
19609;SDS011;9952;47.122;-1.638;2024-02-28T18:34:55;3.23;;;1.80;;
19609;SDS011;9952;47.122;-1.638;2024-02-28T18:39:38;2.07;;;1.70;;
19609;SDS011;9952;47.122;-1.638;2024-02-28T18:44:21;5.20;;;1.43;;
19609;SDS011;9952;47.122;-1.638;2024-02-28T18:49:01;1.20;;;1.07;;
19609;SDS011;9952;47.122;-1.638;2024-02-28T18:53:42;1.73;;;1.33;;
19609;SDS011;9952;47.122;-1.638;2024-02-28T18:58:24;3.00;;;1.90;;
19609;SDS011;9952;47.122;-1.638;2024-02-28T19:03:05;2.63;;;1.30;;
19609;SDS011;9952;47.122;-1.638;2024-02-28T19:07:45;4.10;;;2.13;;
19609;SDS011;9952;47.122;-1.638;2024-02-28T19:12:26;4.93;;;1.77;;
19609;SDS011;9952;47.122;-1.638;2024-02-28T19:17:07;5.27;;;1.50;;
19609;SDS011;9952;47.122;-1.638;2024-02-28T19:21:47;4.17;;;2.33;;
19609;SDS011;9952;47.122;-1.638;2024-02-28T19:26:29;3.03;;;2.53;;
19609;SDS011;9952;47.122;-1.638;2024-02-28T19:31:11;5.47;;;3.37;;
19609;SDS011;9952;47.122;-1.638;2024-02-28T19:35:52;7.80;;;3.07;;
19609;SDS011;9952;47.122;-1.638;2024-02-28T19:40:33;5.83;;;3.67;;
19609;SDS011;9952;47.122;-1.638;2024-02-28T19:45:13;7.57;;;4.30;;
19609;SDS011;9952;47.122;-1.638;2024-02-28T19:49:54;5.90;;;3.87;;
19609;SDS011;9952;47.122;-1.638;2024-02-28T19:54:37;11.37;;;4.73;;
19609;SDS011;9952;47.122;-1.638;2024-02-28T19:59:17;8.00;;;4.13;;
19609;SDS011;9952;47.122;-1.638;2024-02-28T20:03:58;7.47;;;4.77;;
19609;SDS011;9952;47.122;-1.638;2024-02-28T20:08:38;7.47;;;4.60;;
19609;SDS011;9952;47.122;-1.638;2024-02-28T20:13:19;6.43;;;4.33;;
19609;SDS011;9952;47.122;-1.638;2024-02-28T20:18:01;8.60;;;4.50;;
19609;SDS011;9952;47.122;-1.638;2024-02-28T20:22:44;7.40;;;4.93;;
19609;SDS011;9952;47.122;-1.638;2024-02-28T20:27:27;6.23;;;4.20;;
19609;SDS011;9952;47.122;-1.638;2024-02-28T20:32:08;8.63;;;4.23;;
19609;SDS011;9952;47.122;-1.638;2024-02-28T20:36:49;10.17;;;4.90;;
19609;SDS011;9952;47.122;-1.638;2024-02-28T20:41:30;11.20;;;4.93;;
19609;SDS011;9952;47.122;-1.638;2024-02-28T20:46:13;13.23;;;4.23;;
19609;SDS011;9952;47.122;-1.638;2024-02-28T20:50:55;10.73;;;3.83;;
19609;SDS011;9952;47.122;-1.638;2024-02-28T20:55:36;7.87;;;3.33;;
19609;SDS011;9952;47.122;-1.638;2024-02-28T21:00:16;10.33;;;3.60;;
19609;SDS011;9952;47.122;-1.638;2024-02-28T21:04:57;11.27;;;3.27;;
19609;SDS011;9952;47.122;-1.638;2024-02-28T21:09:38;8.07;;;2.77;;
19609;SDS011;9952;47.122;-1.638;2024-02-28T21:14:21;9.47;;;3.30;;
19609;SDS011;9952;47.122;-1.638;2024-02-28T21:19:02;10.97;;;5.20;;
19609;SDS011;9952;47.122;-1.638;2024-02-28T21:23:43;11.07;;;4.80;;
19609;SDS011;9952;47.122;-1.638;2024-02-28T21:28:24;13.10;;;4.50;;
19609;SDS011;9952;47.122;-1.638;2024-02-28T21:33:04;6.80;;;3.97;;
19609;SDS011;9952;47.122;-1.638;2024-02-28T21:37:45;8.13;;;3.40;;
19609;SDS011;9952;47.122;-1.638;2024-02-28T21:42:26;7.57;;;2.53;;
19609;SDS011;9952;47.122;-1.638;2024-02-28T21:47:06;6.93;;;2.00;;
19609;SDS011;9952;47.122;-1.638;2024-02-28T21:51:49;8.47;;;2.13;;
19609;SDS011;9952;47.122;-1.638;2024-02-28T21:56:30;3.57;;;2.00;;
19609;SDS011;9952;47.122;-1.638;2024-02-28T22:01:11;8.03;;;2.37;;
19609;SDS011;9952;47.122;-1.638;2024-02-28T22:05:51;5.13;;;1.93;;
19609;SDS011;9952;47.122;-1.638;2024-02-28T22:10:32;9.43;;;2.27;;
19609;SDS011;9952;47.122;-1.638;2024-02-28T22:15:13;6.67;;;2.10;;
19609;SDS011;9952;47.122;-1.638;2024-02-28T22:19:55;11.57;;;3.53;;
19609;SDS011;9952;47.122;-1.638;2024-02-28T22:24:35;10.93;;;2.77;;
19609;SDS011;9952;47.122;-1.638;2024-02-28T22:29:16;6.60;;;2.60;;
19609;SDS011;9952;47.122;-1.638;2024-02-28T22:33:59;8.37;;;2.20;;
19609;SDS011;9952;47.122;-1.638;2024-02-28T22:38:40;6.67;;;1.90;;
19609;SDS011;9952;47.122;-1.638;2024-02-28T22:43:20;11.50;;;2.43;;
19609;SDS011;9952;47.122;-1.638;2024-02-28T22:48:01;6.23;;;1.63;;
19609;SDS011;9952;47.122;-1.638;2024-02-28T22:52:42;6.33;;;1.73;;
19609;SDS011;9952;47.122;-1.638;2024-02-28T22:57:22;5.50;;;2.20;;
19609;SDS011;9952;47.122;-1.638;2024-02-28T23:02:03;11.37;;;1.70;;
19609;SDS011;9952;47.122;-1.638;2024-02-28T23:06:44;9.60;;;1.50;;
19609;SDS011;9952;47.122;-1.638;2024-02-28T23:11:25;6.73;;;1.40;;
19609;SDS011;9952;47.122;-1.638;2024-02-28T23:16:05;6.83;;;2.00;;
19609;SDS011;9952;47.122;-1.638;2024-02-28T23:20:47;8.57;;;1.60;;
19609;SDS011;9952;47.122;-1.638;2024-02-28T23:25:28;7.53;;;1.90;;
19609;SDS011;9952;47.122;-1.638;2024-02-28T23:30:10;13.43;;;1.70;;
19609;SDS011;9952;47.122;-1.638;2024-02-28T23:34:53;11.83;;;2.17;;
19609;SDS011;9952;47.122;-1.638;2024-02-28T23:39:35;11.10;;;2.27;;
19609;SDS011;9952;47.122;-1.638;2024-02-28T23:44:17;11.23;;;2.13;;
19609;SDS011;9952;47.122;-1.638;2024-02-28T23:48:57;6.40;;;2.47;;
19609;SDS011;9952;47.122;-1.638;2024-02-28T23:53:38;5.70;;;2.33;;
19609;SDS011;9952;47.122;-1.638;2024-02-28T23:58:18;6.77;;;1.73;;
